Time;durP1;ratioP1;P1;durP2;ratioP2;P2;SDS_P1;SDS_P2;PMS_P1;PMS_P2;Temp;Humidity;BMP_temperature;BMP_pressure;BME280_temperature;BME280_humidity;BME280_pressure;Samples;Min_cycle;Max_cycle;Signal;HPM_P1;HPM_P2
2023/02/16 00:01:23;;;;;;;49.55;21.35;;;7.50;99.90;;;;;;4876342;29;20064;-73
2023/02/16 00:03:50;;;;;;;52.25;21.15;;;7.50;99.90;;;;;;4872450;29;20129;-73
2023/02/16 00:06:16;;;;;;;49.78;23.20;;;7.50;99.90;;;;;;4859380;29;20025;-74
2023/02/16 00:08:46;;;;;;;51.05;21.08;;;7.50;99.90;;;;;;4860888;29;20041;-73
2023/02/16 00:14:12;;;;;;;56.92;21.20;;;7.40;99.90;;;;;;4879321;29;20041;-73
2023/02/16 00:16:38;;;;;;;55.78;21.48;;;7.40;99.90;;;;;;4879229;29;20033;-73
2023/02/16 00:19:35;;;;;;;59.55;22.27;;;7.30;99.90;;;;;;4878425;29;20041;-74
2023/02/16 00:22:02;;;;;;;54.57;21.43;;;7.30;99.90;;;;;;4878060;29;20124;-74
2023/02/16 00:24:29;;;;;;;60.40;23.13;;;7.30;99.90;;;;;;4882743;29;20552;-74
2023/02/16 00:26:55;;;;;;;47.83;21.67;;;7.30;99.90;;;;;;4881540;29;20181;-73
2023/02/16 00:29:30;;;;;;;58.88;22.00;;;7.30;99.90;;;;;;4881772;29;20033;-74
2023/02/16 00:31:58;;;;;;;52.42;22.85;;;7.30;99.90;;;;;;4882665;29;20393;-74
2023/02/16 00:34:36;;;;;;;57.25;23.42;;;7.30;99.90;;;;;;4882468;29;20028;-73
2023/02/16 00:37:06;;;;;;;50.28;22.48;;;7.30;99.90;;;;;;4870671;29;20042;-73
2023/02/16 00:39:33;;;;;;;54.88;23.25;;;7.30;99.90;;;;;;4862466;29;20041;-74
2023/02/16 00:42:03;;;;;;;52.63;24.20;;;7.30;99.90;;;;;;4875795;29;20029;-73
2023/02/16 00:44:31;;;;;;;53.13;23.20;;;7.20;99.90;;;;;;4882367;29;20029;-73
2023/02/16 00:47:20;;;;;;;53.88;22.48;;;7.20;99.90;;;;;;4881079;29;20029;-73
2023/02/16 00:49:47;;;;;;;67.72;23.13;;;7.20;99.90;;;;;;4881720;29;20128;-73
2023/02/16 00:52:33;;;;;;;52.60;23.27;;;7.20;99.90;;;;;;4881540;29;20033;-70
2023/02/16 00:55:01;;;;;;;49.75;21.05;;;7.20;99.90;;;;;;4882326;29;20449;-71
2023/02/16 00:57:31;;;;;;;57.60;22.25;;;7.20;99.90;;;;;;4880729;29;20017;-71
2023/02/16 01:00:15;;;;;;;54.42;22.70;;;7.20;99.90;;;;;;4880239;29;20498;-72
2023/02/16 01:02:43;;;;;;;49.22;22.40;;;7.20;99.90;;;;;;4880923;29;20032;-70
2023/02/16 01:05:09;;;;;;;53.08;21.90;;;7.20;99.90;;;;;;4882006;29;20394;-70
2023/02/16 01:13:04;;;;;;;48.88;23.10;;;7.30;99.90;;;;;;4881861;29;20055;-70
2023/02/16 01:15:30;;;;;;;55.33;24.17;;;7.30;99.90;;;;;;4880784;29;20025;-71
2023/02/16 01:17:56;;;;;;;57.95;24.38;;;7.20;99.90;;;;;;4881078;29;20401;-70
2023/02/16 01:20:24;;;;;;;58.22;24.45;;;7.20;99.90;;;;;;4881704;29;20021;-70
2023/02/16 01:22:49;;;;;;;;;;;7.20;99.90;;;;;;4880613;29;20113;-70
2023/02/16 01:25:15;;;;;;;56.70;22.40;;;7.20;99.90;;;;;;4881680;29;20401;-69
2023/02/16 01:27:42;;;;;;;53.00;22.60;;;7.20;99.90;;;;;;4880001;29;20044;-70
2023/02/16 01:30:21;;;;;;;60.95;24.23;;;7.20;99.90;;;;;;4881609;29;20085;-70
2023/02/16 01:32:51;;;;;;;54.35;23.17;;;7.20;99.90;;;;;;4881069;29;20029;-71
2023/02/16 01:35:17;;;;;;;52.90;23.55;;;7.20;99.90;;;;;;4879545;29;20037;-71
2023/02/16 01:37:43;;;;;;;53.85;23.08;;;7.20;99.90;;;;;;4880147;29;20043;-70
2023/02/16 01:40:28;;;;;;;50.90;22.02;;;7.30;99.90;;;;;;4881415;29;20029;-70
2023/02/16 01:43:17;;;;;;;49.38;20.98;;;7.30;99.90;;;;;;4879436;29;20056;-70
2023/02/16 01:45:46;;;;;;;47.63;21.25;;;7.40;99.90;;;;;;4881274;29;20031;-71
2023/02/16 01:48:24;;;;;;;48.88;22.63;;;7.40;99.90;;;;;;4881290;29;20125;-70
2023/02/16 01:51:20;;;;;;;45.28;21.02;;;7.50;99.90;;;;;;4880023;29;20116;-70
2023/02/16 01:53:51;;;;;;;51.72;21.20;;;7.50;99.90;;;;;;4880433;29;20090;-70
2023/02/16 01:56:46;;;;;;;59.53;22.08;;;7.50;99.90;;;;;;4881281;29;20032;-70
2023/02/16 01:59:42;;;;;;;53.92;22.55;;;7.50;99.90;;;;;;4880773;29;20101;-70
2023/02/16 02:02:16;;;;;;;52.38;22.25;;;7.50;99.90;;;;;;4880180;29;20085;-71
2023/02/16 02:07:40;;;;;;;50.60;21.08;;;7.60;99.90;;;;;;4880960;29;20132;-70
2023/02/16 02:10:15;;;;;;;51.72;22.95;;;7.60;99.90;;;;;;4879599;29;20060;-71
2023/02/16 02:12:58;;;;;;;52.42;22.17;;;7.60;99.90;;;;;;4880168;29;20098;-70
2023/02/16 02:15:28;;;;;;;53.22;22.13;;;7.60;99.90;;;;;;4880835;29;20037;-70
2023/02/16 02:17:54;;;;;;;52.05;21.88;;;7.60;99.90;;;;;;4879579;29;20029;-70
2023/02/16 02:24:14;;;;;;;48.83;21.70;;;7.50;99.90;;;;;;4823125;29;20045;-70
2023/02/16 02:27:10;;;;;;;50.92;22.67;;;7.60;99.90;;;;;;4844989;29;20048;-69
2023/02/16 02:29:44;;;;;;;49.40;21.42;;;7.60;99.90;;;;;;4879756;29;20466;-71
2023/02/16 02:32:28;;;;;;;52.95;21.98;;;7.60;99.90;;;;;;4880591;29;20045;-70
2023/02/16 02:35:00;;;;;;;45.42;21.80;;;7.60;99.90;;;;;;4879743;29;20041;-71
2023/02/16 02:37:51;;;;;;;52.20;22.60;;;7.60;99.90;;;;;;4867420;29;20439;-70
2023/02/16 02:40:51;;;;;;;49.08;21.55;;;7.50;99.90;;;;;;4877870;29;20029;-72
2023/02/16 02:43:29;;;;;;;49.13;21.15;;;7.60;99.90;;;;;;4878874;29;20526;-70
2023/02/16 02:46:07;;;;;;;53.45;22.98;;;7.60;99.90;;;;;;4880223;29;20060;-72
2023/02/16 02:48:33;;;;;;;49.45;22.42;;;7.50;99.90;;;;;;4874837;29;20029;-72
2023/02/16 02:51:29;;;;;;;63.25;22.40;;;7.50;99.90;;;;;;4870611;29;20085;-71
2023/02/16 03:02:44;;;;;;;57.05;22.08;;;7.50;99.90;;;;;;4879621;29;20044;-71
2023/02/16 03:05:12;;;;;;;44.67;20.42;;;7.60;99.90;;;;;;4880087;29;20115;-70
2023/02/16 03:07:48;;;;;;;49.20;21.80;;;7.50;99.90;;;;;;4878842;29;20044;-71
2023/02/16 03:13:20;;;;;;;48.20;21.00;;;7.50;99.90;;;;;;4879347;29;20481;-70
2023/02/16 03:15:47;;;;;;;52.40;20.42;;;7.60;99.90;;;;;;4878826;29;20477;-71
2023/02/16 03:29:21;;;;;;;49.47;23.33;;;7.70;99.90;;;;;;4863777;29;20206;-71
2023/02/16 03:31:48;;;;;;;58.42;22.52;;;7.80;99.90;;;;;;4864762;29;20034;-70
2023/02/16 03:34:16;;;;;;;50.90;22.57;;;7.80;99.90;;;;;;4875690;29;20569;-71
2023/02/16 03:36:45;;;;;;;41.08;21.15;;;7.80;99.90;;;;;;4883024;29;20288;-70
2023/02/16 03:39:11;;;;;;;50.67;22.15;;;7.80;99.90;;;;;;4881686;29;20033;-70
2023/02/16 03:41:49;;;;;;;53.60;22.40;;;7.80;99.90;;;;;;4883021;29;20529;-70
2023/02/16 03:44:15;;;;;;;54.97;21.73;;;7.80;99.90;;;;;;4881546;29;20111;-71
2023/02/16 03:46:41;;;;;;;50.95;22.38;;;7.80;99.90;;;;;;4882550;29;20462;-72
2023/02/16 03:49:07;;;;;;;49.38;20.80;;;7.80;99.90;;;;;;4881033;29;20065;-70
2023/02/16 03:51:33;;;;;;;50.88;20.08;;;7.80;99.90;;;;;;4882108;29;20379;-70
2023/02/16 03:53:58;;;;;;;49.58;22.08;;;7.80;99.90;;;;;;4882480;29;20040;-70
2023/02/16 03:56:24;;;;;;;44.90;19.52;;;7.90;99.90;;;;;;4882396;29;20039;-69
2023/02/16 03:58:50;;;;;;;53.55;22.27;;;7.90;99.90;;;;;;4879249;29;20094;-72
2023/02/16 04:01:15;;;;;;;54.45;21.67;;;7.90;99.90;;;;;;4881557;29;20041;-70
2023/02/16 04:03:41;;;;;;;43.38;21.27;;;7.90;99.90;;;;;;4881540;29;20033;-69
2023/02/16 04:06:07;;;;;;;41.78;21.17;;;7.90;99.90;;;;;;4882032;29;20048;-70
2023/02/16 04:08:33;;;;;;;49.53;21.92;;;7.90;99.90;;;;;;4882031;29;20501;-70
2023/02/16 04:10:59;;;;;;;55.13;22.25;;;7.90;99.90;;;;;;4880689;29;20036;-70
2023/02/16 04:13:25;;;;;;;46.40;21.63;;;7.80;99.90;;;;;;4881945;29;20066;-69
2023/02/16 04:15:51;;;;;;;45.60;20.58;;;7.80;99.90;;;;;;4880251;29;20131;-70
2023/02/16 04:18:17;;;;;;;52.70;21.35;;;7.90;99.90;;;;;;4882462;29;20025;-69
2023/02/16 04:20:42;;;;;;;49.58;22.20;;;7.90;99.90;;;;;;4879687;29;20037;-69
2023/02/16 04:23:08;;;;;;;53.53;21.60;;;7.90;99.90;;;;;;4880978;29;20029;-71
2023/02/16 04:25:34;;;;;;;44.05;21.27;;;7.90;99.90;;;;;;4866476;29;20033;-70
2023/02/16 04:27:59;;;;;;;48.05;21.33;;;7.90;99.90;;;;;;4881615;29;20108;-71
2023/02/16 04:30:28;;;;;;;61.80;24.55;;;7.90;99.90;;;;;;4881939;29;20060;-70
2023/02/16 04:32:54;;;;;;;47.72;22.50;;;7.90;99.90;;;;;;4881864;29;20077;-69
2023/02/16 04:35:20;;;;;;;55.45;22.90;;;7.90;99.90;;;;;;4881821;29;20044;-70
2023/02/16 04:37:46;;;;;;;51.10;21.48;;;7.90;99.90;;;;;;4879461;29;20057;-69
2023/02/16 04:40:14;;;;;;;53.08;23.17;;;7.90;99.90;;;;;;4880288;29;20065;-70
2023/02/16 04:42:42;;;;;;;44.97;21.15;;;7.90;99.90;;;;;;4881245;29;20029;-69
2023/02/16 04:45:09;;;;;;;44.53;21.97;;;7.90;99.90;;;;;;4880263;29;20029;-69
2023/02/16 04:47:35;;;;;;;41.30;16.58;;;7.90;99.90;;;;;;4881084;29;20044;-69
2023/02/16 04:50:01;;;;;;;49.72;22.08;;;7.90;99.90;;;;;;4880034;29;20045;-70
2023/02/16 04:52:26;;;;;;;48.58;20.95;;;8.00;99.90;;;;;;4879624;29;20512;-70
2023/02/16 04:54:52;;;;;;;51.20;21.08;;;8.00;99.90;;;;;;4879168;29;20043;-69
2023/02/16 04:57:20;;;;;;;42.38;20.20;;;8.00;99.90;;;;;;4878705;29;20033;-69
2023/02/16 04:59:46;;;;;;;47.35;22.38;;;8.00;99.90;;;;;;4878902;29;20041;-70
2023/02/16 05:02:11;;;;;;;49.78;21.42;;;8.00;99.90;;;;;;4878965;29;20037;-71
2023/02/16 05:04:37;;;;;;;48.60;21.85;;;8.00;99.90;;;;;;4877436;29;20493;-70
2023/02/16 05:07:03;;;;;;;57.05;23.48;;;7.90;99.90;;;;;;4877718;29;20124;-71
2023/02/16 05:09:28;;;;;;;47.75;22.05;;;7.90;99.90;;;;;;4880004;29;20057;-70
2023/02/16 05:14:41;;;;;;;50.22;21.80;;;7.90;99.90;;;;;;4881876;29;20094;-71
2023/02/16 05:17:07;;;;;;;63.30;23.50;;;7.90;99.90;;;;;;4879610;29;20087;-70
2023/02/16 05:19:33;;;;;;;52.13;23.60;;;7.90;99.90;;;;;;4880622;29;20048;-69
2023/02/16 05:21:58;;;;;;;57.22;24.20;;;8.00;99.90;;;;;;4881910;29;20033;-70
2023/02/16 05:24:24;;;;;;;51.33;23.15;;;8.00;99.90;;;;;;4872048;29;20033;-70
2023/02/16 05:26:50;;;;;;;47.45;22.15;;;8.00;99.90;;;;;;4871350;29;20115;-70
2023/02/16 05:29:15;;;;;;;48.20;21.45;;;8.00;99.90;;;;;;4881721;29;20026;-72
2023/02/16 05:31:41;;;;;;;54.67;23.05;;;7.90;99.90;;;;;;4881729;29;20036;-71
2023/02/16 05:34:07;;;;;;;47.58;23.52;;;8.00;99.90;;;;;;4880307;29;20044;-71
2023/02/16 05:36:32;;;;;;;54.38;22.98;;;8.00;99.90;;;;;;4880952;29;20029;-70
2023/02/16 05:38:58;;;;;;;55.10;23.13;;;8.00;99.90;;;;;;4881644;29;20120;-70
2023/02/16 05:41:23;;;;;;;47.90;21.02;;;8.00;99.90;;;;;;4881432;29;20033;-70
2023/02/16 05:43:54;;;;;;;45.25;22.20;;;8.00;99.90;;;;;;4880174;29;20033;-70
2023/02/16 05:46:21;;;;;;;54.40;24.77;;;7.90;99.90;;;;;;4880700;29;20029;-71
2023/02/16 05:48:47;;;;;;;48.73;24.03;;;7.90;99.90;;;;;;4881421;29;20089;-70
2023/02/16 05:51:13;;;;;;;46.67;21.50;;;7.90;99.90;;;;;;4881204;29;20490;-70
2023/02/16 05:53:40;;;;;;;51.25;22.48;;;8.00;99.90;;;;;;4881289;29;20043;-70
2023/02/16 05:56:06;;;;;;;60.22;24.50;;;8.00;99.90;;;;;;4880207;29;20037;-70
2023/02/16 05:58:31;;;;;;;42.80;21.05;;;7.90;99.90;;;;;;4880956;29;20434;-70
2023/02/16 06:00:57;;;;;;;53.80;22.65;;;7.90;99.90;;;;;;4880882;29;20048;-71
2023/02/16 06:03:23;;;;;;;48.88;23.50;;;7.90;99.90;;;;;;4881114;29;20386;-69
2023/02/16 06:06:00;;;;;;;55.05;22.48;;;7.90;99.90;;;;;;4880110;29;20063;-70
2023/02/16 06:08:27;;;;;;;55.10;22.73;;;8.00;99.90;;;;;;4881132;29;20032;-70
2023/02/16 06:11:34;;;;;;;50.67;23.13;;;8.00;99.90;;;;;;4880925;29;20545;-71
2023/02/16 06:13:58;;;;;;;53.95;22.40;;;8.00;99.90;;;;;;4880672;29;20053;-70
2023/02/16 06:16:28;;;;;;;49.83;23.83;;;7.90;99.90;;;;;;4880140;29;20032;-70
2023/02/16 06:19:37;;;;;;;57.97;23.67;;;7.90;99.90;;;;;;4880842;29;20033;-70
2023/02/16 06:22:03;;;;;;;50.28;21.70;;;8.00;99.90;;;;;;4880784;29;20397;-70
2023/02/16 06:24:28;;;;;;;53.17;23.05;;;8.00;99.90;;;;;;4880582;29;20040;-70
2023/02/16 06:26:54;;;;;;;56.05;22.90;;;8.00;99.90;;;;;;4878475;29;20043;-70
2023/02/16 06:29:19;;;;;;;52.97;23.77;;;7.90;99.90;;;;;;4880598;29;20041;-70
2023/02/16 06:31:45;;;;;;;50.95;23.75;;;8.00;99.90;;;;;;4880625;29;20037;-69
2023/02/16 06:34:11;;;;;;;46.15;22.65;;;8.10;99.90;;;;;;4879154;29;20497;-70
2023/02/16 06:36:36;;;;;;;49.75;23.05;;;8.10;99.90;;;;;;4878593;29;20074;-69
2023/02/16 06:39:03;;;;;;;53.83;23.35;;;8.00;99.90;;;;;;4880420;29;20021;-70
2023/02/16 06:41:34;;;;;;;49.60;22.30;;;8.10;99.90;;;;;;4879798;29;20037;-69
2023/02/16 06:44:01;;;;;;;52.63;22.73;;;8.10;99.90;;;;;;4880380;29;20032;-72
2023/02/16 06:46:27;;;;;;;51.35;23.50;;;8.10;99.90;;;;;;4879562;29;20044;-70
2023/02/16 06:48:53;;;;;;;56.40;22.30;;;8.10;99.90;;;;;;4880269;29;20025;-73
2023/02/16 06:51:19;;;;;;;53.60;24.80;;;8.10;99.90;;;;;;4880120;29;20123;-70
2023/02/16 06:53:45;;;;;;;57.45;23.17;;;8.20;99.90;;;;;;4880164;29;20113;-70
2023/02/16 06:56:11;;;;;;;43.90;21.35;;;8.20;99.90;;;;;;4879324;29;20033;-70
2023/02/16 06:58:37;;;;;;;64.47;24.13;;;8.20;99.90;;;;;;4878517;29;20037;-71
2023/02/16 07:01:02;;;;;;;51.67;23.55;;;8.20;99.90;;;;;;4878589;29;20052;-71
2023/02/16 07:03:28;;;;;;;57.55;24.33;;;8.20;99.90;;;;;;4880030;29;20097;-72
2023/02/16 07:05:53;;;;;;;47.55;22.52;;;8.20;99.90;;;;;;4879042;29;20063;-70
2023/02/16 07:08:19;;;;;;;52.63;23.08;;;8.30;99.90;;;;;;4880019;29;20037;-71
2023/02/16 07:10:45;;;;;;;52.17;22.77;;;8.40;99.90;;;;;;4879869;29;20033;-70
2023/02/16 07:13:11;;;;;;;55.40;25.00;;;8.30;99.90;;;;;;4879817;29;20033;-70
2023/02/16 07:15:37;;;;;;;56.20;23.70;;;8.40;99.90;;;;;;4879015;29;20063;-71
2023/02/16 07:18:03;;;;;;;56.83;25.45;;;8.30;99.90;;;;;;4876670;29;20513;-70
2023/02/16 07:20:29;;;;;;;49.22;22.52;;;8.40;99.90;;;;;;4875295;29;20061;-70
2023/02/16 07:22:55;;;;;;;52.15;22.95;;;8.40;99.90;;;;;;4861075;29;20053;-69
2023/02/16 07:25:21;;;;;;;51.65;24.60;;;8.30;99.90;;;;;;4861072;29;20033;-70
2023/02/16 07:27:47;;;;;;;57.97;23.15;;;8.40;99.90;;;;;;4888709;29;20383;-71
2023/02/16 07:30:15;;;;;;;50.20;23.33;;;8.40;99.90;;;;;;4890370;29;20041;-71
2023/02/16 07:32:41;;;;;;;;;;;8.40;99.90;;;;;;4872957;29;20060;-69
2023/02/16 07:35:06;;;;;;;53.15;23.40;;;8.40;99.90;;;;;;4878192;29;19951;-71
2023/02/16 07:37:32;;;;;;;58.38;23.50;;;8.40;99.90;;;;;;4877057;29;20414;-71
2023/02/16 07:39:57;;;;;;;51.40;23.75;;;8.40;99.90;;;;;;4879363;29;20033;-70
2023/02/16 07:42:23;;;;;;;54.25;24.27;;;8.40;99.90;;;;;;4879469;29;20541;-70
2023/02/16 07:44:49;;;;;;;51.30;24.58;;;8.40;99.90;;;;;;4879235;29;20033;-70
2023/02/16 07:47:15;;;;;;;55.22;24.75;;;8.40;99.90;;;;;;4878556;29;20041;-70
2023/02/16 07:49:40;;;;;;;50.22;23.90;;;8.40;99.90;;;;;;4879227;29;20382;-70
2023/02/16 07:52:07;;;;;;;56.65;24.25;;;8.40;99.90;;;;;;4879371;29;20401;-70
2023/02/16 07:54:32;;;;;;;57.60;24.65;;;8.50;99.90;;;;;;4878864;29;20493;-71
2023/02/16 07:57:00;;;;;;;56.90;23.20;;;8.50;99.90;;;;;;4877059;29;20029;-70
2023/02/16 07:59:26;;;;;;;53.40;23.25;;;8.40;99.90;;;;;;4878471;29;20049;-71
2023/02/16 08:01:54;;;;;;;58.55;24.38;;;8.40;99.90;;;;;;4878597;29;20033;-70
2023/02/16 08:04:20;;;;;;;53.80;23.50;;;8.40;99.90;;;;;;4879620;29;20544;-70
2023/02/16 08:06:47;;;;;;;47.88;23.73;;;8.40;99.90;;;;;;4879179;29;20068;-71
2023/02/16 08:09:14;;;;;;;61.88;24.25;;;8.40;99.90;;;;;;4879263;29;20565;-71
2023/02/16 08:11:40;;;;;;;49.75;23.88;;;8.50;99.90;;;;;;4878548;29;20040;-70
2023/02/16 08:14:05;;;;;;;56.22;24.85;;;8.50;99.90;;;;;;4877798;29;20625;-70
2023/02/16 08:16:31;;;;;;;47.92;22.63;;;8.50;99.90;;;;;;4878824;29;20147;-72
2023/02/16 08:18:59;;;;;;;49.78;23.08;;;8.50;99.90;;;;;;4879097;29;20051;-72
2023/02/16 08:21:29;;;;;;;52.63;23.00;;;8.60;99.90;;;;;;4878521;29;20104;-75
2023/02/16 08:24:00;;;;;;;60.55;25.02;;;8.60;99.90;;;;;;4879625;29;20048;-75
2023/02/16 08:26:38;;;;;;;58.40;23.70;;;8.50;99.90;;;;;;4879110;29;20040;-73
2023/02/16 08:29:04;;;;;;;52.67;24.20;;;8.50;99.90;;;;;;4877811;29;20033;-75
2023/02/16 08:31:33;;;;;;;52.25;23.75;;;8.60;99.90;;;;;;4879068;29;20045;-73
2023/02/16 08:34:02;;;;;;;53.00;23.92;;;8.50;99.90;;;;;;4879087;29;20493;-73
2023/02/16 08:36:37;;;;;;;53.92;22.88;;;8.50;99.90;;;;;;4876941;29;20025;-76
2023/02/16 08:39:11;;;;;;;48.92;22.88;;;8.50;99.90;;;;;;4878823;29;20025;-76
2023/02/16 08:41:37;;;;;;;51.67;22.27;;;8.50;99.90;;;;;;4879005;29;20033;-74
2023/02/16 08:44:05;;;;;;;48.38;24.83;;;8.50;99.90;;;;;;4881339;29;20040;-73
2023/02/16 08:46:36;;;;;;;54.37;23.03;;;8.60;99.90;;;;;;4878127;29;20068;-74
2023/02/16 08:49:02;;;;;;;45.72;22.13;;;8.60;99.90;;;;;;4880422;29;20037;-73
2023/02/16 08:51:30;;;;;;;54.72;24.00;;;8.60;99.90;;;;;;4882755;29;20049;-74
2023/02/16 08:53:57;;;;;;;54.75;23.67;;;8.60;99.90;;;;;;4882465;29;20037;-74
2023/02/16 08:56:25;;;;;;;55.45;23.38;;;8.70;99.90;;;;;;4878044;29;20034;-74
2023/02/16 08:58:51;;;;;;;47.20;22.55;;;8.70;99.90;;;;;;4864039;29;20493;-74
2023/02/16 09:01:17;;;;;;;50.65;24.27;;;8.60;99.90;;;;;;4873593;29;20045;-74
2023/02/16 09:03:44;;;;;;;61.00;24.98;;;8.70;99.90;;;;;;4861759;29;20046;-73
2023/02/16 09:06:13;;;;;;;51.08;23.95;;;8.60;99.90;;;;;;4861682;29;20072;-73
2023/02/16 09:08:40;;;;;;;50.17;24.17;;;8.50;99.90;;;;;;4861737;29;20128;-75
2023/02/16 09:11:14;;;;;;;59.72;24.23;;;8.50;99.90;;;;;;4861176;29;20033;-73
2023/02/16 09:13:42;;;;;;;54.10;23.50;;;8.40;99.90;;;;;;4861525;29;20136;-74
2023/02/16 09:16:14;;;;;;;61.33;26.77;;;8.40;99.90;;;;;;4846058;29;20089;-72
2023/02/16 09:18:41;;;;;;;58.08;26.48;;;8.20;99.90;;;;;;4861480;29;20455;-73
2023/02/16 09:21:10;;;;;;;61.88;25.88;;;8.20;99.90;;;;;;4837284;29;20095;-73
2023/02/16 09:23:40;;;;;;;60.85;26.80;;;8.10;99.90;;;;;;4842822;29;20037;-73
2023/02/16 09:26:08;;;;;;;69.47;27.05;;;8.10;99.90;;;;;;4840299;29;20448;-71
2023/02/16 09:28:35;;;;;;;57.58;25.40;;;8.20;99.90;;;;;;4842547;29;20038;-73
2023/02/16 09:31:07;;;;;;;63.42;25.05;;;8.20;99.90;;;;;;4860351;29;20439;-71
2023/02/16 09:33:33;;;;;;;59.92;25.50;;;8.20;99.90;;;;;;4845094;29;20060;-72
2023/02/16 09:36:05;;;;;;;55.65;26.00;;;8.20;99.90;;;;;;4881569;29;20032;-73
2023/02/16 09:38:33;;;;;;;52.25;23.67;;;8.20;99.90;;;;;;4881595;29;20509;-74
2023/02/16 09:41:07;;;;;;;57.55;25.35;;;8.20;99.90;;;;;;4881455;29;20401;-73
2023/02/16 09:43:46;;;;;;;57.58;24.45;;;8.10;99.90;;;;;;4879582;29;20029;-73
2023/02/16 09:46:16;;;;;;;59.13;26.55;;;8.20;99.90;;;;;;4881458;29;20481;-73
2023/02/16 09:48:45;;;;;;;57.80;26.52;;;8.20;99.90;;;;;;4879791;29;20035;-72
2023/02/16 09:51:19;;;;;;;60.78;24.77;;;8.20;99.90;;;;;;4880514;29;20024;-74
2023/02/16 09:53:54;;;;;;;58.38;26.00;;;8.30;99.90;;;;;;4881021;29;20068;-72
2023/02/16 09:56:31;;;;;;;63.30;27.67;;;8.30;99.90;;;;;;4873417;29;20482;-71
2023/02/16 09:59:10;;;;;;;;;;;8.40;99.90;;;;;;4867599;29;20026;-74
2023/02/16 10:01:51;;;;;;;60.35;27.67;;;8.40;99.90;;;;;;4881042;29;20015;-73
2023/02/16 10:04:37;;;;;;;55.97;26.58;;;8.50;99.90;;;;;;4880393;29;20033;-73
2023/02/16 10:07:22;;;;;;;58.95;25.48;;;8.60;99.90;;;;;;4879756;29;20041;-71
2023/02/16 10:09:52;;;;;;;59.10;26.95;;;8.70;99.90;;;;;;4881028;29;20047;-72
2023/02/16 10:12:23;;;;;;;49.90;25.02;;;8.80;99.90;;;;;;4877823;29;20037;-72
2023/02/16 10:14:52;;;;;;;62.97;26.67;;;8.90;99.90;;;;;;4878409;29;20470;-71
2023/02/16 10:17:19;;;;;;;65.40;26.65;;;9.00;99.90;;;;;;4862388;29;20086;-72
2023/02/16 10:19:56;;;;;;;58.78;27.15;;;9.00;99.90;;;;;;4870394;29;20028;-71
2023/02/16 10:22:44;;;;;;;56.20;25.27;;;9.10;99.90;;;;;;4879878;29;20426;-70
2023/02/16 10:25:39;;;;;;;52.78;26.17;;;9.10;99.90;;;;;;4879618;29;20045;-71
2023/02/16 10:28:27;;;;;;;61.67;25.15;;;9.20;99.90;;;;;;4868812;29;20045;-71
2023/02/16 10:31:01;;;;;;;55.35;24.90;;;9.20;99.90;;;;;;4878902;29;20393;-72
2023/02/16 10:34:05;;;;;;;56.95;27.15;;;9.30;99.90;;;;;;4861928;29;20046;-73
2023/02/16 10:36:59;;;;;;;61.67;26.85;;;9.20;99.90;;;;;;4867961;29;20025;-72
2023/02/16 10:40:11;;;;;;;59.17;26.95;;;9.30;99.90;;;;;;4863741;29;20040;-73
2023/02/16 10:42:55;;;;;;;58.88;25.13;;;9.30;99.90;;;;;;4880119;29;20094;-73
2023/02/16 10:45:42;;;;;;;51.20;24.65;;;9.30;99.90;;;;;;4880766;29;20135;-73
2023/02/16 10:48:09;;;;;;;57.95;26.27;;;9.30;99.90;;;;;;4880675;29;20068;-73
2023/02/16 10:50:40;;;;;;;63.03;26.92;;;9.40;99.90;;;;;;4879682;29;20073;-72
2023/02/16 10:53:20;;;;;;;54.58;25.35;;;9.50;99.90;;;;;;4880524;29;20044;-71
2023/02/16 10:55:46;;;;;;;54.67;25.10;;;9.60;99.90;;;;;;4878954;29;20049;-73
2023/02/16 10:58:21;;;;;;;60.55;26.67;;;9.60;99.90;;;;;;4880194;29;20401;-72
2023/02/16 11:00:53;;;;;;;59.85;26.30;;;9.70;99.90;;;;;;4878126;29;20045;-73
2023/02/16 11:03:25;;;;;;;53.60;25.63;;;9.80;99.90;;;;;;4880157;29;20028;-72
2023/02/16 11:05:52;;;;;;;72.30;29.95;;;9.80;99.90;;;;;;4875496;29;20030;-72
2023/02/16 11:08:18;;;;;;;54.63;27.37;;;10.00;99.90;;;;;;4874964;29;20033;-71
2023/02/16 11:10:50;;;;;;;55.38;25.98;;;10.00;99.90;;;;;;4880082;29;20056;-71
2023/02/16 11:13:26;;;;;;;60.22;27.20;;;10.00;99.90;;;;;;4888202;29;20033;-71
2023/02/16 11:15:54;;;;;;;63.70;26.58;;;10.00;99.90;;;;;;4892358;29;20401;-71
2023/02/16 11:18:54;;;;;;;52.20;25.60;;;10.00;99.90;;;;;;4879697;29;20040;-71
2023/02/16 11:21:20;;;;;;;50.08;25.90;;;10.10;99.90;;;;;;4876455;29;20135;-71
2023/02/16 11:23:57;;;;;;;54.38;25.17;;;10.10;99.90;;;;;;4879936;29;20029;-71
2023/02/16 11:26:25;;;;;;;53.30;25.08;;;10.20;99.90;;;;;;4879879;29;20426;-72
2023/02/16 11:28:52;;;;;;;51.58;26.38;;;10.30;99.90;;;;;;4879570;29;20033;-72
2023/02/16 11:31:22;;;;;;;58.58;25.98;;;10.40;99.90;;;;;;4879876;29;20192;-72
2023/02/16 11:34:26;;;;;;;55.10;25.13;;;10.40;99.90;;;;;;4879740;29;20033;-72
2023/02/16 11:37:01;;;;;;;53.38;25.92;;;10.50;99.90;;;;;;4877713;29;20123;-71
2023/02/16 11:39:38;;;;;;;58.20;26.30;;;10.60;99.90;;;;;;4879058;29;20120;-72
2023/02/16 11:42:08;;;;;;;51.92;23.92;;;10.60;99.90;;;;;;4877913;29;20116;-72
2023/02/16 11:44:49;;;;;;;50.72;24.85;;;10.70;99.90;;;;;;4879172;29;20036;-72
2023/02/16 11:47:24;;;;;;;51.25;25.58;;;10.80;99.90;;;;;;4879654;29;20041;-73
2023/02/16 11:50:05;;;;;;;61.88;26.45;;;10.80;99.90;;;;;;4878356;29;20036;-71
2023/02/16 11:52:31;;;;;;;51.28;24.70;;;10.90;99.90;;;;;;4879260;29;20041;-72
2023/02/16 11:54:59;;;;;;;46.13;23.80;;;10.90;99.90;;;;;;4879478;29;20037;-71
2023/02/16 11:57:34;;;;;;;48.03;22.58;;;10.90;99.90;;;;;;4879503;29;20033;-73
2023/02/16 12:00:10;;;;;;;51.83;22.58;;;11.00;99.90;;;;;;4878951;29;20463;-71
2023/02/16 12:02:56;;;;;;;52.22;24.00;;;11.00;99.90;;;;;;4878087;29;20049;-71
2023/02/16 12:06:01;;;;;;;51.75;23.80;;;11.10;99.90;;;;;;4879323;29;20533;-71
2023/02/16 12:08:37;;;;;;;46.00;22.17;;;11.20;99.90;;;;;;4850713;29;20040;-73
2023/02/16 12:11:35;;;;;;;49.42;23.90;;;11.20;99.90;;;;;;4879155;29;20488;-72
2023/02/16 12:14:31;;;;;;;49.95;23.17;;;11.40;99.90;;;;;;4878863;29;20037;-72
2023/02/16 12:17:21;;;;;;;49.45;24.05;;;11.60;99.90;;;;;;4860883;29;20034;-72
2023/02/16 12:19:57;;;;;;;40.13;21.02;;;11.80;99.90;;;;;;4864619;29;20030;-72
2023/02/16 12:23:05;;;;;;;49.10;22.00;;;11.80;99.90;;;;;;4864559;29;20086;-73
2023/02/16 12:25:45;;;;;;;45.85;22.65;;;11.90;99.90;;;;;;4798046;29;20057;-72
2023/02/16 12:28:37;;;;;;;47.15;21.95;;;11.80;99.90;;;;;;4860054;29;20057;-72
2023/02/16 12:31:16;;;;;;;44.50;21.30;;;11.90;99.90;;;;;;4875751;29;20029;-73
2023/02/16 12:34:08;;;;;;;41.00;20.95;;;11.90;99.90;;;;;;4882869;29;20029;-72
2023/02/16 12:36:45;;;;;;;45.72;22.15;;;11.80;99.90;;;;;;4882965;29;20036;-73
2023/02/16 12:39:17;;;;;;;50.15;21.60;;;11.70;99.90;;;;;;4882980;29;20037;-73
2023/02/16 12:42:01;;;;;;;48.65;22.05;;;11.80;99.90;;;;;;4882316;29;20037;-73
2023/02/16 12:44:41;;;;;;;46.10;22.00;;;11.80;99.90;;;;;;4882719;29;20055;-72
2023/02/16 12:47:13;;;;;;;42.47;20.73;;;11.80;99.90;;;;;;4882514;29;20036;-73
2023/02/16 12:49:41;;;;;;;46.92;21.05;;;11.80;99.90;;;;;;4882575;29;20224;-72
2023/02/16 12:52:28;;;;;;;43.67;21.52;;;11.90;99.90;;;;;;4882631;29;20041;-73
2023/02/16 12:55:25;;;;;;;42.42;18.80;;;11.90;99.90;;;;;;4880867;29;20048;-73
2023/02/16 12:58:06;;;;;;;43.17;20.00;;;12.00;99.90;;;;;;4881464;29;20489;-74
2023/02/16 13:00:47;;;;;;;51.22;19.95;;;12.00;99.90;;;;;;4882126;29;20032;-73
2023/02/16 13:03:33;;;;;;;45.80;20.70;;;12.10;99.90;;;;;;4882412;29;20395;-73
2023/02/16 13:06:29;;;;;;;43.17;20.92;;;12.10;99.90;;;;;;4881855;29;20025;-73
2023/02/16 13:09:28;;;;;;;44.17;19.90;;;12.00;99.90;;;;;;4875580;29;20037;-73
2023/02/16 13:12:06;;;;;;;47.10;20.05;;;12.00;99.90;;;;;;4880848;29;20041;-74
2023/02/16 13:14:33;;;;;;;;;;;12.10;99.90;;;;;;4881927;29;20033;-73
2023/02/16 13:17:03;;;;;;;34.83;17.58;;;12.10;99.90;;;;;;4881430;29;19918;-73
2023/02/16 13:19:29;;;;;;;41.00;18.77;;;12.10;99.90;;;;;;4882004;29;20037;-73
2023/02/16 13:22:29;;;;;;;33.20;16.92;;;12.20;99.90;;;;;;4890051;29;20041;-73
2023/02/16 13:25:14;;;;;;;37.13;16.98;;;12.20;99.90;;;;;;4882121;29;20052;-73
2023/02/16 13:28:10;;;;;;;35.42;16.40;;;12.40;99.90;;;;;;4881817;29;20036;-73
2023/02/16 13:30:57;;;;;;;34.53;16.75;;;12.50;99.90;;;;;;4830936;29;20042;-73
2023/02/16 13:33:43;;;;;;;32.00;15.75;;;12.40;99.90;;;;;;4880988;29;20040;-73
2023/02/16 13:36:40;;;;;;;36.33;16.33;;;12.40;99.90;;;;;;4881327;29;20033;-74
2023/02/16 13:39:42;;;;;;;34.53;16.20;;;12.40;99.90;;;;;;4881676;29;20048;-73
2023/02/16 13:42:55;;;;;;;30.77;15.80;;;12.30;99.90;;;;;;4881781;29;20048;-74
2023/02/16 13:45:26;;;;;;;30.02;14.60;;;12.40;99.90;;;;;;4860900;29;20048;-73